createdAt,value
2022-11-18T00:02:07.602Z,11.50
2022-11-18T00:07:04.406Z,11.23
2022-11-18T00:12:19.872Z,11.02
2022-11-18T00:17:19.392Z,10.98
2022-11-18T00:22:15.907Z,10.86
2022-11-18T00:27:13.272Z,10.83
2022-11-18T00:32:11.466Z,10.79
2022-11-18T00:37:08.110Z,10.55
2022-11-18T00:42:22.837Z,10.48
2022-11-18T00:47:20.144Z,10.47
2022-11-18T00:52:16.669Z,10.64
2022-11-18T00:57:14.270Z,10.66
2022-11-18T01:02:10.997Z,10.84
2022-11-18T01:07:08.444Z,10.81
2022-11-18T01:12:23.410Z,10.90
2022-11-18T01:17:19.987Z,10.54
2022-11-18T01:22:19.706Z,10.42
2022-11-18T01:27:17.815Z,10.36
2022-11-18T01:32:24.381Z,10.40
2022-11-18T01:37:22.784Z,10.34
2022-11-18T01:42:21.874Z,10.58
2022-11-18T01:47:18.963Z,10.57
2022-11-18T01:52:15.646Z,10.55
2022-11-18T01:57:16.717Z,10.58
2022-11-18T02:02:14.508Z,10.51
2022-11-18T02:07:11.910Z,10.80
2022-11-18T02:12:08.774Z,11.13
2022-11-18T02:17:13.050Z,11.34
2022-11-18T02:22:18.454Z,11.47
2022-11-18T02:27:49.203Z,11.39
2022-11-18T02:32:53.392Z,11.34
2022-11-18T02:37:54.488Z,11.26
2022-11-18T02:42:52.938Z,11.34
2022-11-18T02:47:51.386Z,11.54
2022-11-18T02:52:51.619Z,11.59
2022-11-18T02:57:50.891Z,11.70
2022-11-18T03:02:49.277Z,11.70
2022-11-18T03:07:50.209Z,11.69
2022-11-18T03:12:54.050Z,11.67
2022-11-18T03:17:54.562Z,11.70
2022-11-18T03:22:55.869Z,11.65
2022-11-18T03:27:55.591Z,11.63
2022-11-18T03:32:56.476Z,11.58
2022-11-18T03:37:56.840Z,11.52
2022-11-18T03:42:57.429Z,11.50
2022-11-18T03:47:57.932Z,11.54
2022-11-18T03:52:55.238Z,11.58
2022-11-18T03:57:55.277Z,11.67
2022-11-18T04:02:52.009Z,11.84
2022-11-18T04:07:54.061Z,11.78
2022-11-18T04:12:56.826Z,11.45
2022-11-18T04:17:55.353Z,11.56
2022-11-18T04:22:52.357Z,11.72
2022-11-18T04:27:49.075Z,11.76
2022-11-18T04:32:49.311Z,11.80
2022-11-18T04:37:46.022Z,11.79
2022-11-18T04:42:43.992Z,11.80
2022-11-18T04:47:41.027Z,12.01
2022-11-18T04:52:38.321Z,11.91
2022-11-18T04:57:35.973Z,11.90
2022-11-18T05:02:32.672Z,11.76
2022-11-18T05:07:29.392Z,11.63
2022-11-18T05:12:45.122Z,11.76
2022-11-18T05:17:41.733Z,11.73
2022-11-18T05:22:41.320Z,11.95
2022-11-18T05:27:40.900Z,11.94
2022-11-18T05:32:37.528Z,11.94
2022-11-18T05:37:34.121Z,11.91
2022-11-18T05:42:48.870Z,11.95
2022-11-18T05:48:02.103Z,11.88
2022-11-18T05:52:58.760Z,11.86
2022-11-18T05:57:55.394Z,11.93
2022-11-18T06:02:54.949Z,11.96
2022-11-18T06:07:56.831Z,11.76
2022-11-18T06:12:56.762Z,10.74
2022-11-18T06:17:57.022Z,10.87
2022-11-18T06:22:55.062Z,10.91
2022-11-18T06:27:55.232Z,10.96
2022-11-18T06:32:51.892Z,11.21
2022-11-18T06:37:49.271Z,11.15
2022-11-18T06:43:07.180Z,10.83
2022-11-18T06:48:03.996Z,10.90
2022-11-18T06:53:01.336Z,10.90
2022-11-18T06:57:58.351Z,10.77
2022-11-18T07:02:55.116Z,10.92
2022-11-18T07:07:54.212Z,11.14
2022-11-18T07:12:51.502Z,11.28
2022-11-18T07:17:49.648Z,11.43
2022-11-18T07:22:46.300Z,11.29
2022-11-18T07:27:47.001Z,11.11
2022-11-18T07:32:56.367Z,10.66
2022-11-18T07:38:18.204Z,10.56
2022-11-18T07:43:48.509Z,10.53
2022-11-18T07:49:02.986Z,10.48
2022-11-18T07:54:42.229Z,10.74
2022-11-18T07:59:41.997Z,10.52
2022-11-18T08:04:42.010Z,11.11
2022-11-18T08:09:38.995Z,11.47
2022-11-18T08:14:35.739Z,11.83
2022-11-18T08:19:34.162Z,11.94
2022-11-18T08:24:34.687Z,11.84
2022-11-18T08:29:31.611Z,12.21
2022-11-18T08:34:28.281Z,11.62
2022-11-18T08:39:25.781Z,11.73
2022-11-18T08:44:25.139Z,12.09
2022-11-18T08:49:29.606Z,11.73
2022-11-18T08:54:28.909Z,11.46
2022-11-18T08:59:26.677Z,11.18
2022-11-18T09:04:24.762Z,11.01
2022-11-18T09:09:22.467Z,11.14
2022-11-18T09:15:11.571Z,11.47
2022-11-18T09:19:48.709Z,12.06
2022-11-18T09:24:45.975Z,12.04
2022-11-18T09:29:43.026Z,12.32
2022-11-18T09:34:40.441Z,12.60
2022-11-18T09:39:41.297Z,12.63
2022-11-18T09:44:50.612Z,13.02
2022-11-18T09:49:50.130Z,13.14
2022-11-18T09:54:47.419Z,13.09
2022-11-18T09:59:44.794Z,13.21
2022-11-18T10:04:41.938Z,13.10
2022-11-18T10:09:44.040Z,13.13
2022-11-18T10:14:49.738Z,12.88
2022-11-18T10:19:55.496Z,13.27
2022-11-18T10:24:53.513Z,13.20
2022-11-18T10:29:55.618Z,13.15
2022-11-18T10:34:53.722Z,13.08
2022-11-18T10:39:51.443Z,13.45
2022-11-18T10:44:48.969Z,13.29
2022-11-18T10:49:50.105Z,13.73
2022-11-18T10:55:08.287Z,13.89
2022-11-18T11:00:08.617Z,13.53
2022-11-18T11:05:17.639Z,13.65
2022-11-18T11:10:23.006Z,13.67
2022-11-18T11:15:24.585Z,13.64
2022-11-18T11:20:22.987Z,13.79
2022-11-18T11:25:24.215Z,14.16
2022-11-18T11:30:24.927Z,13.82
2022-11-18T11:35:23.656Z,13.91
2022-11-18T11:40:25.377Z,14.11
2022-11-18T11:45:39.935Z,14.28
2022-11-18T11:51:01.607Z,14.49
2022-11-18T11:56:22.879Z,14.52
2022-11-18T12:01:34.445Z,14.46
2022-11-18T12:06:31.930Z,14.47
2022-11-18T12:11:32.805Z,14.56
2022-11-18T12:16:35.298Z,14.55
2022-11-18T12:21:53.610Z,14.53
2022-11-18T12:26:51.322Z,14.72
2022-11-18T12:31:52.997Z,14.76
2022-11-18T12:36:49.854Z,14.69
2022-11-18T12:42:13.521Z,14.81
2022-11-18T12:47:12.031Z,14.90
2022-11-18T12:52:39.683Z,14.85
2022-11-18T12:57:40.416Z,14.86
2022-11-18T13:02:38.214Z,15.00
2022-11-18T13:08:07.201Z,14.78
2022-11-18T13:13:04.005Z,15.05
2022-11-18T13:18:08.453Z,15.13
2022-11-18T13:23:39.929Z,15.03
2022-11-18T13:28:40.555Z,14.86
2022-11-18T13:33:39.352Z,14.91
2022-11-18T13:38:36.316Z,15.13
2022-11-18T13:43:36.606Z,14.88
2022-11-18T13:48:35.319Z,14.99
2022-11-18T13:53:35.215Z,14.96
2022-11-18T13:58:55.843Z,15.03
2022-11-18T14:03:53.918Z,14.93
2022-11-18T14:08:52.438Z,15.00
2022-11-18T14:13:52.032Z,15.17
2022-11-18T14:18:53.950Z,15.12
2022-11-18T14:23:51.504Z,15.11
2022-11-18T14:28:54.015Z,15.11
2022-11-18T14:34:16.220Z,15.05
2022-11-18T14:39:31.628Z,14.78
2022-11-18T14:44:29.964Z,15.12
2022-11-18T14:49:27.694Z,14.74
2022-11-18T14:54:28.476Z,14.94
2022-11-18T14:59:28.683Z,14.89
2022-11-18T15:04:28.100Z,14.87
2022-11-18T15:09:24.821Z,14.76
2022-11-18T15:14:22.324Z,14.71
2022-11-18T15:19:22.063Z,14.40
2022-11-18T15:24:20.268Z,14.33
2022-11-18T15:29:20.822Z,14.52
2022-11-18T15:34:19.473Z,14.39
2022-11-18T15:39:17.823Z,14.15
2022-11-18T15:44:15.303Z,14.34
2022-11-18T15:49:17.572Z,14.40
2022-11-18T15:54:18.260Z,14.49
2022-11-18T15:59:17.581Z,14.41
2022-11-18T16:04:18.246Z,14.21
2022-11-18T16:09:18.805Z,14.14
2022-11-18T16:14:18.921Z,14.00
2022-11-18T16:19:17.129Z,14.10
2022-11-18T16:24:18.192Z,13.88
2022-11-18T16:29:16.410Z,14.05
2022-11-18T16:34:18.866Z,14.16
2022-11-18T16:39:17.677Z,14.00
2022-11-18T16:44:18.155Z,14.01
2022-11-18T16:49:18.330Z,14.04
2022-11-18T16:54:17.097Z,14.13
2022-11-18T16:59:15.967Z,14.22
2022-11-18T17:04:12.916Z,13.81
2022-11-18T17:09:12.897Z,13.79
2022-11-18T17:14:10.062Z,13.98
2022-11-18T17:19:11.801Z,14.08
2022-11-18T17:24:11.608Z,14.11
2022-11-18T17:29:15.195Z,14.10
2022-11-18T17:34:13.583Z,14.14
2022-11-18T17:39:16.384Z,13.91
2022-11-18T17:44:16.456Z,13.21
2022-11-18T17:49:17.470Z,12.95
2022-11-18T17:54:14.581Z,13.06
2022-11-18T17:59:11.420Z,13.15
2022-11-18T18:04:08.306Z,13.25
2022-11-18T18:09:07.156Z,13.25
2022-11-18T18:14:14.978Z,13.45
2022-11-18T18:19:12.993Z,13.62
2022-11-18T18:24:21.900Z,13.29
2022-11-18T18:29:19.167Z,13.33
2022-11-18T18:34:16.258Z,13.57
2022-11-18T18:39:16.569Z,13.47
2022-11-18T18:44:18.638Z,13.63
2022-11-18T18:49:25.123Z,13.73
2022-11-18T18:54:48.913Z,13.81
2022-11-18T18:59:53.668Z,13.92
2022-11-18T19:04:50.437Z,13.89
2022-11-18T19:09:47.903Z,13.88
2022-11-18T19:14:44.789Z,13.82
2022-11-18T19:20:00.600Z,13.83
2022-11-18T19:25:00.676Z,13.93
2022-11-18T19:29:58.212Z,13.85
2022-11-18T19:34:54.922Z,13.75
2022-11-18T19:39:54.692Z,13.91
2022-11-18T19:44:55.052Z,13.80
2022-11-18T19:49:54.196Z,13.69
2022-11-18T19:54:54.027Z,13.26
2022-11-18T19:59:50.705Z,13.11
2022-11-18T20:05:02.515Z,13.08
2022-11-18T20:09:59.236Z,12.77
2022-11-18T20:14:59.005Z,12.63
2022-11-18T20:19:57.135Z,12.58
2022-11-18T20:24:54.190Z,12.65
2022-11-18T20:29:51.070Z,12.74
2022-11-18T20:34:48.450Z,12.48
2022-11-18T20:39:46.120Z,12.80
2022-11-18T20:44:43.199Z,12.82
2022-11-18T20:49:46.466Z,13.19
2022-11-18T20:54:45.103Z,12.91
2022-11-18T20:59:42.751Z,12.94
2022-11-18T21:04:39.586Z,12.98
2022-11-18T21:09:38.973Z,13.05
2022-11-18T21:14:35.770Z,13.29
2022-11-18T21:19:35.817Z,13.39
2022-11-18T21:24:46.454Z,13.48
2022-11-18T21:29:45.906Z,13.51
2022-11-18T21:34:43.387Z,13.66
2022-11-18T21:39:42.492Z,13.81
2022-11-18T21:44:39.254Z,14.00
2022-11-18T21:49:35.850Z,14.13
2022-11-18T21:54:34.549Z,14.22
2022-11-18T21:59:31.157Z,14.38
2022-11-18T22:04:45.908Z,14.41
2022-11-18T22:09:43.345Z,14.50
2022-11-18T22:14:40.576Z,14.51
2022-11-18T22:19:37.195Z,14.57
2022-11-18T22:24:33.729Z,14.42
2022-11-18T22:29:31.051Z,14.32
2022-11-18T22:34:28.788Z,13.96
2022-11-18T22:39:28.379Z,13.95
2022-11-18T22:44:27.035Z,13.81
2022-11-18T22:49:24.355Z,13.78
2022-11-18T22:59:38.018Z,13.70
2022-11-18T23:04:39.436Z,13.49
2022-11-18T23:09:36.138Z,13.28
2022-11-18T23:14:35.000Z,13.34
2022-11-18T23:19:36.408Z,13.27
2022-11-18T23:24:34.227Z,13.38
2022-11-18T23:29:30.969Z,13.34
2022-11-18T23:34:27.560Z,13.29
2022-11-18T23:39:25.450Z,13.53
2022-11-18T23:44:42.949Z,13.30
2022-11-18T23:49:42.586Z,13.23
2022-11-18T23:54:41.740Z,13.44
2022-11-18T23:59:39.011Z,13.42
